sensor_id;sensor_type;location;lat;lon;timestamp;temperature;humidity
8114;DHT22;4099;52.684;9.918;2023-01-06T00:01:09;8.10;99.90
8114;DHT22;4099;52.684;9.918;2023-01-06T00:06:11;8.20;99.90
8114;DHT22;4099;52.684;9.918;2023-01-06T00:11:14;8.20;99.90
8114;DHT22;4099;52.684;9.918;2023-01-06T00:16:19;8.20;99.90
8114;DHT22;4099;52.684;9.918;2023-01-06T00:21:20;8.20;99.90
8114;DHT22;4099;52.684;9.918;2023-01-06T00:26:22;8.20;99.90
8114;DHT22;4099;52.684;9.918;2023-01-06T00:31:25;8.20;99.90
8114;DHT22;4099;52.684;9.918;2023-01-06T00:36:27;8.20;99.90
8114;DHT22;4099;52.684;9.918;2023-01-06T00:41:29;8.30;99.90
8114;DHT22;4099;52.684;9.918;2023-01-06T00:46:50;8.20;99.90
8114;DHT22;4099;52.684;9.918;2023-01-06T00:51:52;8.20;99.90
8114;DHT22;4099;52.684;9.918;2023-01-06T00:56:54;8.30;99.90
8114;DHT22;4099;52.684;9.918;2023-01-06T01:01:58;8.30;99.90
8114;DHT22;4099;52.684;9.918;2023-01-06T01:06:59;8.30;99.90
8114;DHT22;4099;52.684;9.918;2023-01-06T01:12:01;8.30;99.90
8114;DHT22;4099;52.684;9.918;2023-01-06T01:17:16;8.30;99.90
8114;DHT22;4099;52.684;9.918;2023-01-06T01:22:20;8.40;99.90
8114;DHT22;4099;52.684;9.918;2023-01-06T01:27:22;8.40;99.90
8114;DHT22;4099;52.684;9.918;2023-01-06T01:32:27;8.40;99.90
8114;DHT22;4099;52.684;9.918;2023-01-06T01:37:29;8.40;99.90
8114;DHT22;4099;52.684;9.918;2023-01-06T01:42:31;8.40;99.90
8114;DHT22;4099;52.684;9.918;2023-01-06T01:47:42;8.40;99.90
8114;DHT22;4099;52.684;9.918;2023-01-06T01:52:48;8.50;99.90
8114;DHT22;4099;52.684;9.918;2023-01-06T01:57:53;8.50;99.90
8114;DHT22;4099;52.684;9.918;2023-01-06T02:02:58;8.50;99.90
8114;DHT22;4099;52.684;9.918;2023-01-06T02:08:06;8.50;99.90
8114;DHT22;4099;52.684;9.918;2023-01-06T02:13:10;8.50;99.90
8114;DHT22;4099;52.684;9.918;2023-01-06T02:18:31;8.50;99.90
8114;DHT22;4099;52.684;9.918;2023-01-06T02:24:05;8.50;99.90
8114;DHT22;4099;52.684;9.918;2023-01-06T02:35:06;8.60;99.90
8114;DHT22;4099;52.684;9.918;2023-01-06T02:40:26;8.60;99.90
8114;DHT22;4099;52.684;9.918;2023-01-06T02:45:39;8.60;99.90
8114;DHT22;4099;52.684;9.918;2023-01-06T02:50:51;8.60;99.90
8114;DHT22;4099;52.684;9.918;2023-01-06T02:55:57;8.50;99.90
8114;DHT22;4099;52.684;9.918;2023-01-06T03:01:02;8.60;99.90
8114;DHT22;4099;52.684;9.918;2023-01-06T03:06:08;8.70;99.90
8114;DHT22;4099;52.684;9.918;2023-01-06T03:11:12;8.60;99.90
8114;DHT22;4099;52.684;9.918;2023-01-06T03:16:15;8.70;99.90
8114;DHT22;4099;52.684;9.918;2023-01-06T03:21:21;8.60;99.90
8114;DHT22;4099;52.684;9.918;2023-01-06T03:26:25;8.70;99.90
8114;DHT22;4099;52.684;9.918;2023-01-06T03:31:34;8.70;99.90
8114;DHT22;4099;52.684;9.918;2023-01-06T03:36:49;8.60;99.90
8114;DHT22;4099;52.684;9.918;2023-01-06T03:42:01;8.60;99.90
8114;DHT22;4099;52.684;9.918;2023-01-06T03:47:34;8.70;99.90
8114;DHT22;4099;52.684;9.918;2023-01-06T03:52:44;8.70;99.90
8114;DHT22;4099;52.684;9.918;2023-01-06T03:57:52;8.80;99.90
8114;DHT22;4099;52.684;9.918;2023-01-06T04:02:57;8.80;99.90
8114;DHT22;4099;52.684;9.918;2023-01-06T04:08:01;8.80;99.90
8114;DHT22;4099;52.684;9.918;2023-01-06T04:13:03;8.80;99.90
8114;DHT22;4099;52.684;9.918;2023-01-06T04:18:07;8.90;99.90
8114;DHT22;4099;52.684;9.918;2023-01-06T04:23:14;8.90;99.90
8114;DHT22;4099;52.684;9.918;2023-01-06T04:28:17;8.90;99.90
8114;DHT22;4099;52.684;9.918;2023-01-06T04:33:23;8.90;99.90
8114;DHT22;4099;52.684;9.918;2023-01-06T04:38:28;8.90;99.90
8114;DHT22;4099;52.684;9.918;2023-01-06T04:43:30;8.90;99.90
8114;DHT22;4099;52.684;9.918;2023-01-06T04:48:32;8.90;99.90
8114;DHT22;4099;52.684;9.918;2023-01-06T04:53:37;8.90;99.90
8114;DHT22;4099;52.684;9.918;2023-01-06T04:58:39;8.90;99.90
8114;DHT22;4099;52.684;9.918;2023-01-06T05:03:41;8.90;99.90
8114;DHT22;4099;52.684;9.918;2023-01-06T05:08:45;8.90;99.90
8114;DHT22;4099;52.684;9.918;2023-01-06T05:13:47;8.90;99.90
8114;DHT22;4099;52.684;9.918;2023-01-06T05:18:48;9.00;99.90
8114;DHT22;4099;52.684;9.918;2023-01-06T05:23:52;8.90;99.90
8114;DHT22;4099;52.684;9.918;2023-01-06T05:28:54;8.90;99.90
8114;DHT22;4099;52.684;9.918;2023-01-06T05:33:56;9.00;99.90
8114;DHT22;4099;52.684;9.918;2023-01-06T05:38:59;8.90;99.90
8114;DHT22;4099;52.684;9.918;2023-01-06T05:44:01;8.90;99.90
8114;DHT22;4099;52.684;9.918;2023-01-06T05:49:03;9.00;99.90
8114;DHT22;4099;52.684;9.918;2023-01-06T05:54:08;9.00;99.90
8114;DHT22;4099;52.684;9.918;2023-01-06T05:59:10;9.00;99.90
8114;DHT22;4099;52.684;9.918;2023-01-06T06:04:12;9.10;99.90
8114;DHT22;4099;52.684;9.918;2023-01-06T06:09:15;9.00;99.90
8114;DHT22;4099;52.684;9.918;2023-01-06T06:14:17;9.00;99.90
8114;DHT22;4099;52.684;9.918;2023-01-06T06:19:19;9.00;99.90
8114;DHT22;4099;52.684;9.918;2023-01-06T06:24:22;9.10;99.90
8114;DHT22;4099;52.684;9.918;2023-01-06T06:29:24;9.10;99.90
8114;DHT22;4099;52.684;9.918;2023-01-06T06:34:26;9.10;99.90
8114;DHT22;4099;52.684;9.918;2023-01-06T06:39:29;9.10;99.90
8114;DHT22;4099;52.684;9.918;2023-01-06T06:44:31;9.10;99.90
8114;DHT22;4099;52.684;9.918;2023-01-06T06:49:32;9.10;99.90
8114;DHT22;4099;52.684;9.918;2023-01-06T06:54:35;9.20;99.90
8114;DHT22;4099;52.684;9.918;2023-01-06T06:59:37;9.30;99.90
8114;DHT22;4099;52.684;9.918;2023-01-06T07:04:39;9.30;99.90
8114;DHT22;4099;52.684;9.918;2023-01-06T07:09:42;9.30;99.90
8114;DHT22;4099;52.684;9.918;2023-01-06T07:14:44;9.20;99.90
8114;DHT22;4099;52.684;9.918;2023-01-06T07:19:46;9.20;99.90
8114;DHT22;4099;52.684;9.918;2023-01-06T07:24:49;9.20;99.90
8114;DHT22;4099;52.684;9.918;2023-01-06T07:29:50;9.20;99.90
8114;DHT22;4099;52.684;9.918;2023-01-06T07:34:52;9.20;99.90
8114;DHT22;4099;52.684;9.918;2023-01-06T07:39:55;9.20;99.90
8114;DHT22;4099;52.684;9.918;2023-01-06T07:44:57;9.20;99.90
8114;DHT22;4099;52.684;9.918;2023-01-06T07:49:59;9.20;99.90
8114;DHT22;4099;52.684;9.918;2023-01-06T07:55:02;9.10;99.90
8114;DHT22;4099;52.684;9.918;2023-01-06T08:00:05;9.10;99.90
8114;DHT22;4099;52.684;9.918;2023-01-06T08:05:12;9.10;99.90
8114;DHT22;4099;52.684;9.918;2023-01-06T08:10:15;9.10;99.90
8114;DHT22;4099;52.684;9.918;2023-01-06T08:15:17;9.20;99.90
8114;DHT22;4099;52.684;9.918;2023-01-06T08:20:19;9.20;99.90
8114;DHT22;4099;52.684;9.918;2023-01-06T08:25:22;9.30;99.90
8114;DHT22;4099;52.684;9.918;2023-01-06T08:30:24;9.40;99.90
8114;DHT22;4099;52.684;9.918;2023-01-06T08:35:26;9.40;99.90
8114;DHT22;4099;52.684;9.918;2023-01-06T08:40:29;9.40;99.90
8114;DHT22;4099;52.684;9.918;2023-01-06T08:45:31;9.50;99.90
8114;DHT22;4099;52.684;9.918;2023-01-06T08:50:33;9.60;99.90
8114;DHT22;4099;52.684;9.918;2023-01-06T08:55:39;9.60;99.90
8114;DHT22;4099;52.684;9.918;2023-01-06T09:00:41;9.70;99.90
8114;DHT22;4099;52.684;9.918;2023-01-06T09:05:50;9.80;99.90
8114;DHT22;4099;52.684;9.918;2023-01-06T09:10:53;9.90;99.90
8114;DHT22;4099;52.684;9.918;2023-01-06T09:15:55;9.90;99.90
8114;DHT22;4099;52.684;9.918;2023-01-06T09:20:56;10.00;99.90
8114;DHT22;4099;52.684;9.918;2023-01-06T09:25:59;9.90;99.90
8114;DHT22;4099;52.684;9.918;2023-01-06T09:31:01;9.70;99.90
8114;DHT22;4099;52.684;9.918;2023-01-06T09:36:03;9.60;99.90
8114;DHT22;4099;52.684;9.918;2023-01-06T09:41:24;9.60;99.90
8114;DHT22;4099;52.684;9.918;2023-01-06T09:46:32;9.60;99.90
8114;DHT22;4099;52.684;9.918;2023-01-06T09:51:35;9.60;99.90
8114;DHT22;4099;52.684;9.918;2023-01-06T09:56:41;9.60;99.90
8114;DHT22;4099;52.684;9.918;2023-01-06T10:01:46;9.60;99.90
8114;DHT22;4099;52.684;9.918;2023-01-06T10:06:54;9.60;99.90
8114;DHT22;4099;52.684;9.918;2023-01-06T10:12:04;9.60;99.90
8114;DHT22;4099;52.684;9.918;2023-01-06T10:17:22;9.70;99.90
8114;DHT22;4099;52.684;9.918;2023-01-06T10:22:30;9.60;99.90
8114;DHT22;4099;52.684;9.918;2023-01-06T10:27:39;9.70;99.90
8114;DHT22;4099;52.684;9.918;2023-01-06T10:32:42;9.70;99.90
8114;DHT22;4099;52.684;9.918;2023-01-06T10:37:46;9.60;99.90
8114;DHT22;4099;52.684;9.918;2023-01-06T10:42:54;9.60;99.90
8114;DHT22;4099;52.684;9.918;2023-01-06T10:47:56;9.70;99.90
8114;DHT22;4099;52.684;9.918;2023-01-06T10:52:58;9.70;99.90
8114;DHT22;4099;52.684;9.918;2023-01-06T10:58:09;9.80;99.90
8114;DHT22;4099;52.684;9.918;2023-01-06T11:03:13;9.90;99.90
8114;DHT22;4099;52.684;9.918;2023-01-06T11:08:16;10.00;99.90
8114;DHT22;4099;52.684;9.918;2023-01-06T11:13:23;10.00;99.90
8114;DHT22;4099;52.684;9.918;2023-01-06T11:18:35;9.90;99.90
8114;DHT22;4099;52.684;9.918;2023-01-06T11:23:39;10.00;99.90
8114;DHT22;4099;52.684;9.918;2023-01-06T11:28:42;10.20;99.90
8114;DHT22;4099;52.684;9.918;2023-01-06T11:33:50;10.10;99.90
8114;DHT22;4099;52.684;9.918;2023-01-06T11:38:55;10.10;99.90
8114;DHT22;4099;52.684;9.918;2023-01-06T11:44:05;10.10;99.90
8114;DHT22;4099;52.684;9.918;2023-01-06T11:49:13;10.20;99.90
8114;DHT22;4099;52.684;9.918;2023-01-06T11:54:30;10.30;99.90
8114;DHT22;4099;52.684;9.918;2023-01-06T11:59:47;10.40;99.90
8114;DHT22;4099;52.684;9.918;2023-01-06T12:04:55;10.70;99.90
8114;DHT22;4099;52.684;9.918;2023-01-06T12:09:59;10.90;99.90
8114;DHT22;4099;52.684;9.918;2023-01-06T12:15:02;11.10;99.90
8114;DHT22;4099;52.684;9.918;2023-01-06T12:20:10;11.30;99.90
8114;DHT22;4099;52.684;9.918;2023-01-06T12:25:17;11.30;99.90
8114;DHT22;4099;52.684;9.918;2023-01-06T12:30:25;11.30;99.90
8114;DHT22;4099;52.684;9.918;2023-01-06T12:35:32;11.10;99.90
8114;DHT22;4099;52.684;9.918;2023-01-06T12:40:41;11.20;99.90
8114;DHT22;4099;52.684;9.918;2023-01-06T12:45:51;11.60;99.90
8114;DHT22;4099;52.684;9.918;2023-01-06T12:50:58;12.80;88.40
8114;DHT22;4099;52.684;9.918;2023-01-06T12:56:17;13.80;1.00
8114;DHT22;4099;52.684;9.918;2023-01-06T13:01:29;13.60;99.90
8114;DHT22;4099;52.684;9.918;2023-01-06T13:06:40;12.70;99.90
8114;DHT22;4099;52.684;9.918;2023-01-06T13:12:05;12.10;99.90
8114;DHT22;4099;52.684;9.918;2023-01-06T13:17:16;11.30;1.00
8114;DHT22;4099;52.684;9.918;2023-01-06T13:22:24;11.70;99.90
8114;DHT22;4099;52.684;9.918;2023-01-06T13:27:42;11.90;99.90
8114;DHT22;4099;52.684;9.918;2023-01-06T13:33:00;12.40;80.30
8114;DHT22;4099;52.684;9.918;2023-01-06T13:43:32;11.90;99.90
8114;DHT22;4099;52.684;9.918;2023-01-06T13:48:38;11.30;99.90
8114;DHT22;4099;52.684;9.918;2023-01-06T13:53:44;11.50;1.00
8114;DHT22;4099;52.684;9.918;2023-01-06T13:58:50;11.10;1.00
8114;DHT22;4099;52.684;9.918;2023-01-06T14:03:52;10.40;1.00
8114;DHT22;4099;52.684;9.918;2023-01-06T14:08:58;10.10;1.00
8114;DHT22;4099;52.684;9.918;2023-01-06T14:14:02;10.20;1.00
8114;DHT22;4099;52.684;9.918;2023-01-06T14:19:06;10.50;1.00
8114;DHT22;4099;52.684;9.918;2023-01-06T14:24:20;10.50;1.00
8114;DHT22;4099;52.684;9.918;2023-01-06T14:30:00;10.50;1.00
8114;DHT22;4099;52.684;9.918;2023-01-06T14:35:09;10.50;1.00
8114;DHT22;4099;52.684;9.918;2023-01-06T14:40:18;10.40;1.00
8114;DHT22;4099;52.684;9.918;2023-01-06T14:45:24;10.20;1.00
8114;DHT22;4099;52.684;9.918;2023-01-06T14:50:29;10.10;1.00
8114;DHT22;4099;52.684;9.918;2023-01-06T14:55:35;10.00;1.00
8114;DHT22;4099;52.684;9.918;2023-01-06T15:00:44;9.80;1.00
8114;DHT22;4099;52.684;9.918;2023-01-06T15:05:46;9.60;1.00
8114;DHT22;4099;52.684;9.918;2023-01-06T15:10:50;9.40;1.00
8114;DHT22;4099;52.684;9.918;2023-01-06T15:15:52;9.30;1.00
8114;DHT22;4099;52.684;9.918;2023-01-06T15:20:55;9.10;1.00
8114;DHT22;4099;52.684;9.918;2023-01-06T15:25:58;9.00;1.00
8114;DHT22;4099;52.684;9.918;2023-01-06T15:31:01;8.90;1.00
8114;DHT22;4099;52.684;9.918;2023-01-06T15:36:03;8.90;1.00
8114;DHT22;4099;52.684;9.918;2023-01-06T15:41:07;8.80;2.30
8114;DHT22;4099;52.684;9.918;2023-01-06T15:46:37;8.70;39.90
8114;DHT22;4099;52.684;9.918;2023-01-06T15:51:39;8.60;78.80
8114;DHT22;4099;52.684;9.918;2023-01-06T15:56:42;8.50;95.30
8114;DHT22;4099;52.684;9.918;2023-01-06T16:01:49;8.50;99.90
8114;DHT22;4099;52.684;9.918;2023-01-06T16:06:51;8.50;99.90
8114;DHT22;4099;52.684;9.918;2023-01-06T16:12:06;8.30;99.90
8114;DHT22;4099;52.684;9.918;2023-01-06T16:17:09;8.30;99.90
8114;DHT22;4099;52.684;9.918;2023-01-06T16:22:26;8.20;99.90
8114;DHT22;4099;52.684;9.918;2023-01-06T16:27:32;8.20;99.90
8114;DHT22;4099;52.684;9.918;2023-01-06T16:32:36;8.10;99.90
8114;DHT22;4099;52.684;9.918;2023-01-06T16:37:39;8.00;99.90
8114;DHT22;4099;52.684;9.918;2023-01-06T16:42:42;7.90;99.90
8114;DHT22;4099;52.684;9.918;2023-01-06T16:47:45;7.90;99.90
8114;DHT22;4099;52.684;9.918;2023-01-06T16:52:50;8.00;99.90
8114;DHT22;4099;52.684;9.918;2023-01-06T16:57:56;8.00;99.90
8114;DHT22;4099;52.684;9.918;2023-01-06T17:02:59;7.80;99.90
8114;DHT22;4099;52.684;9.918;2023-01-06T17:08:03;7.80;99.90
8114;DHT22;4099;52.684;9.918;2023-01-06T17:13:11;7.70;99.90
8114;DHT22;4099;52.684;9.918;2023-01-06T17:18:32;7.50;99.90
8114;DHT22;4099;52.684;9.918;2023-01-06T17:23:38;7.50;99.90
8114;DHT22;4099;52.684;9.918;2023-01-06T17:28:45;7.60;99.90
8114;DHT22;4099;52.684;9.918;2023-01-06T17:33:47;7.50;99.90
8114;DHT22;4099;52.684;9.918;2023-01-06T17:38:49;7.40;99.90
8114;DHT22;4099;52.684;9.918;2023-01-06T17:43:53;7.40;99.90
8114;DHT22;4099;52.684;9.918;2023-01-06T17:49:00;7.40;99.90
8114;DHT22;4099;52.684;9.918;2023-01-06T17:54:13;7.30;99.90
8114;DHT22;4099;52.684;9.918;2023-01-06T17:59:34;7.10;99.90
8114;DHT22;4099;52.684;9.918;2023-01-06T18:04:36;7.10;99.90
8114;DHT22;4099;52.684;9.918;2023-01-06T18:09:38;7.00;99.90
8114;DHT22;4099;52.684;9.918;2023-01-06T18:14:41;7.00;99.90
8114;DHT22;4099;52.684;9.918;2023-01-06T18:19:45;7.10;99.90
8114;DHT22;4099;52.684;9.918;2023-01-06T18:24:47;7.10;99.90
8114;DHT22;4099;52.684;9.918;2023-01-06T18:29:52;7.20;99.90
8114;DHT22;4099;52.684;9.918;2023-01-06T18:34:58;7.20;99.90
8114;DHT22;4099;52.684;9.918;2023-01-06T18:40:02;7.10;99.90
8114;DHT22;4099;52.684;9.918;2023-01-06T18:45:21;7.00;99.90
8114;DHT22;4099;52.684;9.918;2023-01-06T18:50:32;6.90;99.90
8114;DHT22;4099;52.684;9.918;2023-01-06T18:55:36;6.70;99.90
8114;DHT22;4099;52.684;9.918;2023-01-06T19:00:41;6.50;99.90
8114;DHT22;4099;52.684;9.918;2023-01-06T19:05:45;6.40;99.90
8114;DHT22;4099;52.684;9.918;2023-01-06T19:10:49;6.20;99.90
8114;DHT22;4099;52.684;9.918;2023-01-06T19:15:52;6.10;99.90
8114;DHT22;4099;52.684;9.918;2023-01-06T19:20:55;6.30;99.90
8114;DHT22;4099;52.684;9.918;2023-01-06T19:26:03;6.40;99.90
8114;DHT22;4099;52.684;9.918;2023-01-06T19:31:14;6.40;99.90
8114;DHT22;4099;52.684;9.918;2023-01-06T19:36:38;6.20;99.90
8114;DHT22;4099;52.684;9.918;2023-01-06T19:41:40;6.10;99.90
8114;DHT22;4099;52.684;9.918;2023-01-06T19:46:45;6.20;99.90
8114;DHT22;4099;52.684;9.918;2023-01-06T19:51:49;6.20;99.90
8114;DHT22;4099;52.684;9.918;2023-01-06T19:56:52;6.20;99.90
8114;DHT22;4099;52.684;9.918;2023-01-06T20:02:15;6.10;99.90
8114;DHT22;4099;52.684;9.918;2023-01-06T20:07:22;6.00;99.90
8114;DHT22;4099;52.684;9.918;2023-01-06T20:12:24;5.80;99.90
8114;DHT22;4099;52.684;9.918;2023-01-06T20:17:27;5.60;99.90
8114;DHT22;4099;52.684;9.918;2023-01-06T20:22:29;5.20;99.90
8114;DHT22;4099;52.684;9.918;2023-01-06T20:27:30;5.10;99.90
8114;DHT22;4099;52.684;9.918;2023-01-06T20:32:34;5.40;99.90
8114;DHT22;4099;52.684;9.918;2023-01-06T20:37:36;5.60;99.90
8114;DHT22;4099;52.684;9.918;2023-01-06T20:42:39;5.50;99.90
8114;DHT22;4099;52.684;9.918;2023-01-06T20:47:42;5.60;99.90
8114;DHT22;4099;52.684;9.918;2023-01-06T20:52:44;5.30;99.90
8114;DHT22;4099;52.684;9.918;2023-01-06T20:57:46;4.90;99.90
8114;DHT22;4099;52.684;9.918;2023-01-06T21:02:49;4.70;99.90
8114;DHT22;4099;52.684;9.918;2023-01-06T21:07:50;4.30;99.90
8114;DHT22;4099;52.684;9.918;2023-01-06T21:12:52;4.30;99.90
8114;DHT22;4099;52.684;9.918;2023-01-06T21:17:56;4.50;99.90
8114;DHT22;4099;52.684;9.918;2023-01-06T21:22:58;4.50;99.90
8114;DHT22;4099;52.684;9.918;2023-01-06T21:28:00;4.40;99.90
8114;DHT22;4099;52.684;9.918;2023-01-06T21:33:03;4.20;99.90
8114;DHT22;4099;52.684;9.918;2023-01-06T21:38:05;3.90;99.90
8114;DHT22;4099;52.684;9.918;2023-01-06T21:43:06;3.70;99.90
8114;DHT22;4099;52.684;9.918;2023-01-06T21:48:12;3.60;99.90
8114;DHT22;4099;52.684;9.918;2023-01-06T21:53:14;3.50;99.90
8114;DHT22;4099;52.684;9.918;2023-01-06T21:58:16;3.50;99.90
8114;DHT22;4099;52.684;9.918;2023-01-06T22:03:20;4.00;99.90
8114;DHT22;4099;52.684;9.918;2023-01-06T22:08:21;4.20;99.90
8114;DHT22;4099;52.684;9.918;2023-01-06T22:13:24;4.00;99.90
8114;DHT22;4099;52.684;9.918;2023-01-06T22:18:27;3.80;99.90
8114;DHT22;4099;52.684;9.918;2023-01-06T22:23:30;3.70;99.90
8114;DHT22;4099;52.684;9.918;2023-01-06T22:28:32;3.70;99.90
8114;DHT22;4099;52.684;9.918;2023-01-06T22:33:35;3.50;99.90
8114;DHT22;4099;52.684;9.918;2023-01-06T22:38:37;3.20;99.90
8114;DHT22;4099;52.684;9.918;2023-01-06T22:43:39;2.90;99.90
8114;DHT22;4099;52.684;9.918;2023-01-06T22:48:42;3.00;99.90
8114;DHT22;4099;52.684;9.918;2023-01-06T22:53:44;3.30;99.90
8114;DHT22;4099;52.684;9.918;2023-01-06T22:58:45;2.80;99.90
8114;DHT22;4099;52.684;9.918;2023-01-06T23:03:49;2.50;99.90
8114;DHT22;4099;52.684;9.918;2023-01-06T23:08:50;2.90;99.90
8114;DHT22;4099;52.684;9.918;2023-01-06T23:13:54;3.30;99.90
8114;DHT22;4099;52.684;9.918;2023-01-06T23:18:57;3.30;99.90
8114;DHT22;4099;52.684;9.918;2023-01-06T23:23:59;2.80;99.90
8114;DHT22;4099;52.684;9.918;2023-01-06T23:29:01;2.40;99.90
8114;DHT22;4099;52.684;9.918;2023-01-06T23:34:09;2.30;99.90
8114;DHT22;4099;52.684;9.918;2023-01-06T23:39:12;2.50;99.90
8114;DHT22;4099;52.684;9.918;2023-01-06T23:44:15;2.90;99.90
8114;DHT22;4099;52.684;9.918;2023-01-06T23:49:19;2.90;99.90
8114;DHT22;4099;52.684;9.918;2023-01-06T23:54:21;2.90;99.90
8114;DHT22;4099;52.684;9.918;2023-01-06T23:59:23;3.00;99.90
